sensor_id;sensor_type;location;lat;lon;timestamp;pressure;altitude;pressure_sealevel;temperature;humidity
46464;BME280;32161;48.148;-1.554;2022-12-07T00:01:21;101590.34;;;3.64;87.89
46464;BME280;32161;48.148;-1.554;2022-12-07T00:03:53;101587.50;;;3.65;87.63
46464;BME280;32161;48.148;-1.554;2022-12-07T00:06:23;101585.47;;;3.67;87.96
46464;BME280;32161;48.148;-1.554;2022-12-07T00:08:50;101582.97;;;3.66;88.07
46464;BME280;32161;48.148;-1.554;2022-12-07T00:11:20;101578.41;;;3.66;87.19
46464;BME280;32161;48.148;-1.554;2022-12-07T00:13:55;101578.41;;;3.66;87.14
46464;BME280;32161;48.148;-1.554;2022-12-07T00:16:26;101574.38;;;3.62;86.67
46464;BME280;32161;48.148;-1.554;2022-12-07T00:18:55;101571.19;;;3.59;87.38
46464;BME280;32161;48.148;-1.554;2022-12-07T00:21:24;101562.59;;;3.55;86.72
46464;BME280;32161;48.148;-1.554;2022-12-07T00:23:54;101558.38;;;3.53;86.69
46464;BME280;32161;48.148;-1.554;2022-12-07T00:26:25;101555.03;;;3.51;86.78
46464;BME280;32161;48.148;-1.554;2022-12-07T00:28:57;101554.34;;;3.49;86.98
46464;BME280;32161;48.148;-1.554;2022-12-07T00:31:28;101557.34;;;3.46;86.42
46464;BME280;32161;48.148;-1.554;2022-12-07T00:33:57;101563.41;;;3.39;87.06
46464;BME280;32161;48.148;-1.554;2022-12-07T00:36:25;101552.78;;;3.38;86.12
46464;BME280;32161;48.148;-1.554;2022-12-07T00:38:54;101560.19;;;3.36;84.75
46464;BME280;32161;48.148;-1.554;2022-12-07T00:41:23;101564.22;;;3.32;84.65
46464;BME280;32161;48.148;-1.554;2022-12-07T00:43:53;101568.88;;;3.30;85.60
46464;BME280;32161;48.148;-1.554;2022-12-07T00:46:22;101557.78;;;3.25;84.59
46464;BME280;32161;48.148;-1.554;2022-12-07T00:48:51;101568.19;;;3.20;84.35
46464;BME280;32161;48.148;-1.554;2022-12-07T00:51:21;101566.16;;;3.13;84.64
46464;BME280;32161;48.148;-1.554;2022-12-07T00:53:49;101566.13;;;3.05;85.58
46464;BME280;32161;48.148;-1.554;2022-12-07T00:56:19;101565.78;;;3.08;85.69
46464;BME280;32161;48.148;-1.554;2022-12-07T00:58:51;101569.81;;;3.04;86.39
46464;BME280;32161;48.148;-1.554;2022-12-07T01:01:22;101562.38;;;2.98;86.09
46464;BME280;32161;48.148;-1.554;2022-12-07T01:03:50;101560.66;;;2.89;87.47
46464;BME280;32161;48.148;-1.554;2022-12-07T01:06:20;101560.28;;;2.84;87.96
46464;BME280;32161;48.148;-1.554;2022-12-07T01:08:49;101555.25;;;2.81;87.45
46464;BME280;32161;48.148;-1.554;2022-12-07T01:11:20;101551.56;;;2.82;86.24
46464;BME280;32161;48.148;-1.554;2022-12-07T01:13:49;101555.56;;;2.78;85.57
46464;BME280;32161;48.148;-1.554;2022-12-07T01:16:20;101550.50;;;2.75;85.22
46464;BME280;32161;48.148;-1.554;2022-12-07T01:18:51;101565.78;;;2.74;84.68
46464;BME280;32161;48.148;-1.554;2022-12-07T01:21:21;101565.09;;;2.72;84.71
46464;BME280;32161;48.148;-1.554;2022-12-07T01:23:50;101563.09;;;2.74;85.17
46464;BME280;32161;48.148;-1.554;2022-12-07T01:26:21;101552.50;;;2.73;86.56
46464;BME280;32161;48.148;-1.554;2022-12-07T01:28:49;101543.47;;;2.74;86.88
46464;BME280;32161;48.148;-1.554;2022-12-07T01:31:20;101552.84;;;2.69;86.14
46464;BME280;32161;48.148;-1.554;2022-12-07T01:33:51;101545.78;;;2.68;85.67
46464;BME280;32161;48.148;-1.554;2022-12-07T01:36:22;101551.97;;;2.69;86.35
46464;BME280;32161;48.148;-1.554;2022-12-07T01:38:51;101551.31;;;2.67;85.25
46464;BME280;32161;48.148;-1.554;2022-12-07T01:41:23;101553.16;;;2.66;86.04
46464;BME280;32161;48.148;-1.554;2022-12-07T01:44:22;101547.25;;;2.63;85.68
46464;BME280;32161;48.148;-1.554;2022-12-07T01:46:53;101562.72;;;2.69;85.84
46464;BME280;32161;48.148;-1.554;2022-12-07T01:49:25;101557.16;;;2.62;84.88
46464;BME280;32161;48.148;-1.554;2022-12-07T01:52:03;101561.47;;;2.55;84.52
46464;BME280;32161;48.148;-1.554;2022-12-07T01:54:35;101560.25;;;2.50;85.32
46464;BME280;32161;48.148;-1.554;2022-12-07T01:57:04;101559.56;;;2.48;86.48
46464;BME280;32161;48.148;-1.554;2022-12-07T01:59:34;101560.88;;;2.43;86.85
46464;BME280;32161;48.148;-1.554;2022-12-07T02:02:10;101562.72;;;2.43;88.04
46464;BME280;32161;48.148;-1.554;2022-12-07T02:04:39;101563.22;;;2.38;87.93
46464;BME280;32161;48.148;-1.554;2022-12-07T02:07:07;101570.56;;;2.36;87.57
46464;BME280;32161;48.148;-1.554;2022-12-07T02:09:35;101567.56;;;2.39;87.58
46464;BME280;32161;48.148;-1.554;2022-12-07T02:12:03;101565.03;;;2.38;88.03
46464;BME280;32161;48.148;-1.554;2022-12-07T02:14:31;101564.03;;;2.39;87.99
46464;BME280;32161;48.148;-1.554;2022-12-07T02:17:12;101576.75;;;2.37;89.50
46464;BME280;32161;48.148;-1.554;2022-12-07T02:20:21;101564.50;;;2.34;89.44
46464;BME280;32161;48.148;-1.554;2022-12-07T02:23:40;101569.03;;;2.34;88.66
46464;BME280;32161;48.148;-1.554;2022-12-07T02:26:51;101571.03;;;2.32;88.20
46464;BME280;32161;48.148;-1.554;2022-12-07T02:29:27;101560.31;;;2.32;86.66
46464;BME280;32161;48.148;-1.554;2022-12-07T02:32:04;101570.19;;;2.31;87.05
46464;BME280;32161;48.148;-1.554;2022-12-07T02:34:44;101569.78;;;2.44;87.36
46464;BME280;32161;48.148;-1.554;2022-12-07T02:37:28;101566.50;;;2.32;87.41
46464;BME280;32161;48.148;-1.554;2022-12-07T02:40:02;101561.31;;;2.31;87.39
46464;BME280;32161;48.148;-1.554;2022-12-07T02:42:36;101554.94;;;2.32;88.34
46464;BME280;32161;48.148;-1.554;2022-12-07T02:45:11;101560.13;;;2.33;88.50
46464;BME280;32161;48.148;-1.554;2022-12-07T02:47:41;101558.28;;;2.34;89.10
46464;BME280;32161;48.148;-1.554;2022-12-07T02:50:10;101556.25;;;2.28;88.38
46464;BME280;32161;48.148;-1.554;2022-12-07T02:52:38;101576.34;;;2.24;87.12
46464;BME280;32161;48.148;-1.554;2022-12-07T02:55:07;101579.31;;;2.20;87.01
46464;BME280;32161;48.148;-1.554;2022-12-07T02:57:54;101566.91;;;2.19;86.11
46464;BME280;32161;48.148;-1.554;2022-12-07T03:00:27;101573.97;;;2.20;87.10
46464;BME280;32161;48.148;-1.554;2022-12-07T03:03:00;101578.97;;;2.15;87.61
46464;BME280;32161;48.148;-1.554;2022-12-07T03:08:34;101566.69;;;2.13;86.72
46464;BME280;32161;48.148;-1.554;2022-12-07T03:11:07;101569.50;;;2.11;87.29
46464;BME280;32161;48.148;-1.554;2022-12-07T03:13:41;101568.59;;;2.20;87.75
46464;BME280;32161;48.148;-1.554;2022-12-07T03:16:16;101572.53;;;2.08;88.55
46464;BME280;32161;48.148;-1.554;2022-12-07T03:18:49;101570.81;;;2.07;88.59
46464;BME280;32161;48.148;-1.554;2022-12-07T03:21:22;101577.72;;;2.10;88.42
46464;BME280;32161;48.148;-1.554;2022-12-07T03:23:54;101564.63;;;2.07;88.25
46464;BME280;32161;48.148;-1.554;2022-12-07T03:26:34;101564.78;;;2.05;88.07
46464;BME280;32161;48.148;-1.554;2022-12-07T03:29:07;101573.81;;;2.04;88.03
46464;BME280;32161;48.148;-1.554;2022-12-07T03:31:40;101566.63;;;2.05;87.85
46464;BME280;32161;48.148;-1.554;2022-12-07T03:34:11;101568.91;;;2.00;88.80
46464;BME280;32161;48.148;-1.554;2022-12-07T03:36:46;101565.06;;;2.02;89.10
46464;BME280;32161;48.148;-1.554;2022-12-07T03:39:22;101562.09;;;1.87;89.91
46464;BME280;32161;48.148;-1.554;2022-12-07T03:41:51;101560.78;;;1.91;90.43
46464;BME280;32161;48.148;-1.554;2022-12-07T03:44:20;101569.38;;;1.95;89.23
46464;BME280;32161;48.148;-1.554;2022-12-07T03:46:59;101560.34;;;1.96;89.89
46464;BME280;32161;48.148;-1.554;2022-12-07T03:49:36;101559.47;;;1.95;89.65
46464;BME280;32161;48.148;-1.554;2022-12-07T03:52:12;101561.88;;;1.99;90.30
46464;BME280;32161;48.148;-1.554;2022-12-07T03:54:48;101559.19;;;1.99;89.85
46464;BME280;32161;48.148;-1.554;2022-12-07T03:57:17;101561.31;;;1.95;90.36
46464;BME280;32161;48.148;-1.554;2022-12-07T03:59:45;101571.38;;;1.93;90.09
46464;BME280;32161;48.148;-1.554;2022-12-07T04:02:15;101567.16;;;1.90;89.60
46464;BME280;32161;48.148;-1.554;2022-12-07T04:04:43;101566.16;;;1.91;87.98
46464;BME280;32161;48.148;-1.554;2022-12-07T04:07:11;101559.28;;;1.89;87.37
46464;BME280;32161;48.148;-1.554;2022-12-07T04:09:39;101559.56;;;1.86;86.62
46464;BME280;32161;48.148;-1.554;2022-12-07T04:12:07;101565.78;;;1.86;86.10
46464;BME280;32161;48.148;-1.554;2022-12-07T04:14:35;101559.28;;;1.89;86.64
46464;BME280;32161;48.148;-1.554;2022-12-07T04:17:02;101565.59;;;1.88;85.86
46464;BME280;32161;48.148;-1.554;2022-12-07T04:19:33;101563.09;;;1.86;86.11
46464;BME280;32161;48.148;-1.554;2022-12-07T04:22:03;101561.25;;;1.87;85.81
46464;BME280;32161;48.148;-1.554;2022-12-07T04:24:31;101556.06;;;1.85;86.69
46464;BME280;32161;48.148;-1.554;2022-12-07T04:26:59;101556.81;;;1.78;86.39
46464;BME280;32161;48.148;-1.554;2022-12-07T04:29:27;101557.97;;;1.75;86.41
46464;BME280;32161;48.148;-1.554;2022-12-07T04:31:55;101563.91;;;1.69;86.88
46464;BME280;32161;48.148;-1.554;2022-12-07T04:34:22;101559.84;;;1.65;87.20
46464;BME280;32161;48.148;-1.554;2022-12-07T04:36:52;101560.31;;;1.60;87.38
46464;BME280;32161;48.148;-1.554;2022-12-07T04:39:22;101558.25;;;1.54;86.99
46464;BME280;32161;48.148;-1.554;2022-12-07T04:41:50;101550.22;;;1.54;86.89
46464;BME280;32161;48.148;-1.554;2022-12-07T04:44:18;101560.25;;;1.52;87.40
46464;BME280;32161;48.148;-1.554;2022-12-07T04:46:47;101559.41;;;1.52;87.16
46464;BME280;32161;48.148;-1.554;2022-12-07T04:49:16;101555.88;;;1.51;86.40
46464;BME280;32161;48.148;-1.554;2022-12-07T04:51:44;101546.47;;;1.47;86.27
46464;BME280;32161;48.148;-1.554;2022-12-07T04:54:15;101555.09;;;1.41;86.85
46464;BME280;32161;48.148;-1.554;2022-12-07T04:56:43;101547.22;;;1.39;87.53
46464;BME280;32161;48.148;-1.554;2022-12-07T04:59:12;101545.50;;;1.38;87.65
46464;BME280;32161;48.148;-1.554;2022-12-07T05:01:41;101557.38;;;1.36;88.09
46464;BME280;32161;48.148;-1.554;2022-12-07T05:04:09;101552.03;;;1.36;88.12
46464;BME280;32161;48.148;-1.554;2022-12-07T05:06:36;101553.72;;;1.37;87.73
46464;BME280;32161;48.148;-1.554;2022-12-07T05:09:05;101545.50;;;1.38;89.14
46464;BME280;32161;48.148;-1.554;2022-12-07T05:11:34;101547.34;;;1.38;89.50
46464;BME280;32161;48.148;-1.554;2022-12-07T05:14:11;101557.78;;;1.41;90.08
46464;BME280;32161;48.148;-1.554;2022-12-07T05:16:40;101548.72;;;1.42;90.11
46464;BME280;32161;48.148;-1.554;2022-12-07T05:19:09;101551.41;;;1.42;89.94
46464;BME280;32161;48.148;-1.554;2022-12-07T05:21:37;101550.44;;;1.43;89.91
46464;BME280;32161;48.148;-1.554;2022-12-07T05:24:06;101558.47;;;1.43;89.53
46464;BME280;32161;48.148;-1.554;2022-12-07T05:26:35;101544.63;;;1.48;88.95
46464;BME280;32161;48.148;-1.554;2022-12-07T05:29:03;101529.31;;;1.40;87.43
46464;BME280;32161;48.148;-1.554;2022-12-07T05:31:31;101536.63;;;1.38;86.11
46464;BME280;32161;48.148;-1.554;2022-12-07T05:34:00;101534.72;;;1.30;87.39
46464;BME280;32161;48.148;-1.554;2022-12-07T05:36:27;101536.84;;;1.27;87.21
46464;BME280;32161;48.148;-1.554;2022-12-07T05:38:57;101553.78;;;1.27;87.26
46464;BME280;32161;48.148;-1.554;2022-12-07T05:41:25;101543.81;;;1.19;88.07
46464;BME280;32161;48.148;-1.554;2022-12-07T05:44:11;101558.03;;;1.20;87.83
46464;BME280;32161;48.148;-1.554;2022-12-07T05:46:38;101567.38;;;1.16;87.66
46464;BME280;32161;48.148;-1.554;2022-12-07T05:49:06;101565.44;;;1.08;88.19
46464;BME280;32161;48.148;-1.554;2022-12-07T05:51:34;101563.16;;;1.04;89.15
46464;BME280;32161;48.148;-1.554;2022-12-07T05:54:01;101569.88;;;0.90;90.37
46464;BME280;32161;48.148;-1.554;2022-12-07T05:56:29;101563.38;;;0.92;91.06
46464;BME280;32161;48.148;-1.554;2022-12-07T05:58:57;101573.66;;;0.97;91.19
46464;BME280;32161;48.148;-1.554;2022-12-07T06:01:43;101568.28;;;0.97;91.44
46464;BME280;32161;48.148;-1.554;2022-12-07T06:04:10;101572.25;;;0.93;91.77
46464;BME280;32161;48.148;-1.554;2022-12-07T06:06:38;101564.34;;;0.91;92.45
46464;BME280;32161;48.148;-1.554;2022-12-07T06:09:06;101571.09;;;0.95;92.21
46464;BME280;32161;48.148;-1.554;2022-12-07T06:11:33;101565.75;;;0.95;92.49
46464;BME280;32161;48.148;-1.554;2022-12-07T06:14:18;101566.91;;;0.93;92.84
46464;BME280;32161;48.148;-1.554;2022-12-07T06:16:48;101567.13;;;1.00;92.58
46464;BME280;32161;48.148;-1.554;2022-12-07T06:19:16;101562.94;;;0.97;92.83
46464;BME280;32161;48.148;-1.554;2022-12-07T06:21:44;101562.34;;;1.03;92.75
46464;BME280;32161;48.148;-1.554;2022-12-07T06:24:12;101573.31;;;1.10;92.20
46464;BME280;32161;48.148;-1.554;2022-12-07T06:26:41;101583.47;;;1.06;91.78
46464;BME280;32161;48.148;-1.554;2022-12-07T06:29:09;101571.91;;;1.06;91.56
46464;BME280;32161;48.148;-1.554;2022-12-07T06:31:37;101570.53;;;1.02;92.13
46464;BME280;32161;48.148;-1.554;2022-12-07T06:34:09;101570.53;;;1.02;92.38
46464;BME280;32161;48.148;-1.554;2022-12-07T06:36:38;101573.03;;;1.03;92.40
46464;BME280;32161;48.148;-1.554;2022-12-07T06:39:06;101566.56;;;1.06;92.07
46464;BME280;32161;48.148;-1.554;2022-12-07T06:41:35;101563.44;;;1.10;91.97
46464;BME280;32161;48.148;-1.554;2022-12-07T06:44:03;101570.19;;;1.14;91.65
46464;BME280;32161;48.148;-1.554;2022-12-07T06:46:31;101577.25;;;1.15;91.41
46464;BME280;32161;48.148;-1.554;2022-12-07T06:49:01;101577.91;;;1.17;91.75
46464;BME280;32161;48.148;-1.554;2022-12-07T06:51:31;101581.44;;;1.18;91.10
46464;BME280;32161;48.148;-1.554;2022-12-07T06:53:59;101579.31;;;1.21;91.28
46464;BME280;32161;48.148;-1.554;2022-12-07T06:56:27;101587.34;;;1.21;90.61
46464;BME280;32161;48.148;-1.554;2022-12-07T06:58:55;101587.63;;;1.18;90.97
46464;BME280;32161;48.148;-1.554;2022-12-07T07:01:22;101591.31;;;1.17;91.13
46464;BME280;32161;48.148;-1.554;2022-12-07T07:03:50;101584.66;;;1.21;91.19
46464;BME280;32161;48.148;-1.554;2022-12-07T07:06:18;101580.84;;;1.24;91.27
46464;BME280;32161;48.148;-1.554;2022-12-07T07:08:47;101575.03;;;1.29;90.91
46464;BME280;32161;48.148;-1.554;2022-12-07T07:11:15;101581.53;;;1.26;90.39
46464;BME280;32161;48.148;-1.554;2022-12-07T07:13:44;101577.16;;;1.25;90.41
46464;BME280;32161;48.148;-1.554;2022-12-07T07:16:12;101578.00;;;1.26;90.87
46464;BME280;32161;48.148;-1.554;2022-12-07T07:18:39;101570.69;;;1.28;90.66
46464;BME280;32161;48.148;-1.554;2022-12-07T07:21:07;101580.56;;;1.27;90.76
46464;BME280;32161;48.148;-1.554;2022-12-07T07:23:35;101580.41;;;1.29;90.81
46464;BME280;32161;48.148;-1.554;2022-12-07T07:26:04;101583.78;;;1.31;90.74
46464;BME280;32161;48.148;-1.554;2022-12-07T07:28:32;101587.72;;;1.27;90.51
46464;BME280;32161;48.148;-1.554;2022-12-07T07:30:59;101587.13;;;1.05;90.39
46464;BME280;32161;48.148;-1.554;2022-12-07T07:33:27;101590.66;;;1.06;90.73
46464;BME280;32161;48.148;-1.554;2022-12-07T07:35:54;101589.53;;;1.08;90.99
46464;BME280;32161;48.148;-1.554;2022-12-07T07:38:22;101585.00;;;1.09;91.24
46464;BME280;32161;48.148;-1.554;2022-12-07T07:40:50;101582.16;;;1.10;91.30
46464;BME280;32161;48.148;-1.554;2022-12-07T07:43:19;101584.84;;;1.10;91.54
46464;BME280;32161;48.148;-1.554;2022-12-07T07:45:46;101585.41;;;1.14;91.58
46464;BME280;32161;48.148;-1.554;2022-12-07T07:48:14;101576.38;;;1.15;90.80
46464;BME280;32161;48.148;-1.554;2022-12-07T07:50:42;101588.19;;;1.22;90.54
46464;BME280;32161;48.148;-1.554;2022-12-07T07:53:09;101584.06;;;1.28;90.68
46464;BME280;32161;48.148;-1.554;2022-12-07T07:55:37;101591.81;;;1.31;89.98
46464;BME280;32161;48.148;-1.554;2022-12-07T07:58:04;101594.09;;;1.26;89.84
46464;BME280;32161;48.148;-1.554;2022-12-07T08:00:33;101599.44;;;1.26;90.64
46464;BME280;32161;48.148;-1.554;2022-12-07T08:03:01;101590.19;;;1.20;90.76
46464;BME280;32161;48.148;-1.554;2022-12-07T08:05:28;101592.97;;;1.18;91.25
46464;BME280;32161;48.148;-1.554;2022-12-07T08:07:57;101593.97;;;1.17;91.25
46464;BME280;32161;48.148;-1.554;2022-12-07T08:10:25;101600.88;;;1.20;90.91
46464;BME280;32161;48.148;-1.554;2022-12-07T08:12:53;101607.75;;;1.22;91.05
46464;BME280;32161;48.148;-1.554;2022-12-07T08:15:42;101607.19;;;1.29;91.51
46464;BME280;32161;48.148;-1.554;2022-12-07T08:18:11;101601.91;;;1.37;91.63
46464;BME280;32161;48.148;-1.554;2022-12-07T08:20:40;101600.38;;;1.34;90.58
46464;BME280;32161;48.148;-1.554;2022-12-07T08:23:09;101603.06;;;1.34;91.20
46464;BME280;32161;48.148;-1.554;2022-12-07T08:25:38;101605.72;;;1.34;90.91
46464;BME280;32161;48.148;-1.554;2022-12-07T08:28:06;101598.25;;;1.38;90.52
46464;BME280;32161;48.148;-1.554;2022-12-07T08:30:34;101593.44;;;1.41;90.56
46464;BME280;32161;48.148;-1.554;2022-12-07T08:33:03;101594.69;;;1.47;90.85
46464;BME280;32161;48.148;-1.554;2022-12-07T08:35:33;101592.69;;;1.49;91.17
46464;BME280;32161;48.148;-1.554;2022-12-07T08:38:01;101595.34;;;1.49;91.01
46464;BME280;32161;48.148;-1.554;2022-12-07T08:40:29;101590.53;;;1.53;90.97
46464;BME280;32161;48.148;-1.554;2022-12-07T08:42:57;101585.44;;;1.59;91.27
46464;BME280;32161;48.148;-1.554;2022-12-07T08:45:25;101596.69;;;1.63;90.33
46464;BME280;32161;48.148;-1.554;2022-12-07T08:47:58;101593.31;;;1.61;91.24
46464;BME280;32161;48.148;-1.554;2022-12-07T08:50:30;101605.97;;;1.68;90.90
46464;BME280;32161;48.148;-1.554;2022-12-07T08:52:59;101599.63;;;1.69;90.83
46464;BME280;32161;48.148;-1.554;2022-12-07T08:55:27;101598.91;;;1.67;90.66
46464;BME280;32161;48.148;-1.554;2022-12-07T08:57:58;101600.75;;;1.67;89.87
46464;BME280;32161;48.148;-1.554;2022-12-07T09:00:26;101597.53;;;1.63;90.18
46464;BME280;32161;48.148;-1.554;2022-12-07T09:02:54;101596.94;;;1.69;90.70
46464;BME280;32161;48.148;-1.554;2022-12-07T09:05:22;101604.28;;;1.67;89.93
46464;BME280;32161;48.148;-1.554;2022-12-07T09:07:57;101598.09;;;1.67;89.88
46464;BME280;32161;48.148;-1.554;2022-12-07T09:10:27;101603.81;;;1.72;89.79
46464;BME280;32161;48.148;-1.554;2022-12-07T09:12:55;101607.34;;;1.73;90.62
46464;BME280;32161;48.148;-1.554;2022-12-07T09:15:26;101600.31;;;1.71;90.92
46464;BME280;32161;48.148;-1.554;2022-12-07T09:17:54;101607.88;;;1.76;90.35
46464;BME280;32161;48.148;-1.554;2022-12-07T09:20:22;101608.22;;;1.73;91.34
46464;BME280;32161;48.148;-1.554;2022-12-07T09:22:51;101605.38;;;1.75;90.99
46464;BME280;32161;48.148;-1.554;2022-12-07T09:25:19;101609.03;;;1.74;91.07
46464;BME280;32161;48.148;-1.554;2022-12-07T09:27:46;101597.63;;;1.71;91.39
46464;BME280;32161;48.148;-1.554;2022-12-07T09:30:14;101595.47;;;1.75;91.93
46464;BME280;32161;48.148;-1.554;2022-12-07T09:32:42;101595.31;;;1.77;91.82
46464;BME280;32161;48.148;-1.554;2022-12-07T09:35:09;101584.47;;;1.78;91.40
46464;BME280;32161;48.148;-1.554;2022-12-07T09:37:37;101587.44;;;1.75;91.55
46464;BME280;32161;48.148;-1.554;2022-12-07T09:40:07;101590.59;;;1.70;91.67
46464;BME280;32161;48.148;-1.554;2022-12-07T09:42:37;101586.97;;;1.80;92.09
46464;BME280;32161;48.148;-1.554;2022-12-07T09:45:07;101586.69;;;1.83;91.76
46464;BME280;32161;48.148;-1.554;2022-12-07T09:47:39;101590.66;;;1.79;92.30
46464;BME280;32161;48.148;-1.554;2022-12-07T09:50:14;101590.38;;;1.82;92.80
46464;BME280;32161;48.148;-1.554;2022-12-07T09:52:44;101594.25;;;1.87;93.10
46464;BME280;32161;48.148;-1.554;2022-12-07T09:55:19;101588.13;;;1.95;92.45
46464;BME280;32161;48.148;-1.554;2022-12-07T09:57:48;101587.66;;;2.00;92.15
46464;BME280;32161;48.148;-1.554;2022-12-07T10:00:20;101592.72;;;2.03;92.60
46464;BME280;32161;48.148;-1.554;2022-12-07T10:02:53;101592.97;;;2.09;92.96
46464;BME280;32161;48.148;-1.554;2022-12-07T10:05:26;101592.19;;;2.17;92.79
46464;BME280;32161;48.148;-1.554;2022-12-07T10:07:55;101598.78;;;2.23;92.63
46464;BME280;32161;48.148;-1.554;2022-12-07T10:10:29;101598.16;;;2.29;92.54
46464;BME280;32161;48.148;-1.554;2022-12-07T10:13:00;101590.47;;;2.34;92.19
46464;BME280;32161;48.148;-1.554;2022-12-07T10:15:46;101596.91;;;2.41;92.13
46464;BME280;32161;48.148;-1.554;2022-12-07T10:18:21;101593.75;;;2.45;91.84
46464;BME280;32161;48.148;-1.554;2022-12-07T10:21:10;101598.59;;;2.42;91.81
46464;BME280;32161;48.148;-1.554;2022-12-07T10:23:40;101596.59;;;2.44;91.89
46464;BME280;32161;48.148;-1.554;2022-12-07T10:26:32;101585.78;;;2.54;91.71
46464;BME280;32161;48.148;-1.554;2022-12-07T10:29:02;101582.94;;;2.55;91.06
46464;BME280;32161;48.148;-1.554;2022-12-07T10:31:31;101582.94;;;2.55;90.66
46464;BME280;32161;48.148;-1.554;2022-12-07T10:48:38;101571.91;;;2.58;91.86
46464;BME280;32161;48.148;-1.554;2022-12-07T10:51:15;101571.78;;;2.68;91.71
46464;BME280;32161;48.148;-1.554;2022-12-07T10:54:03;101568.50;;;2.82;91.14
46464;BME280;32161;48.148;-1.554;2022-12-07T11:00:06;101555.31;;;2.89;91.35
46464;BME280;32161;48.148;-1.554;2022-12-07T11:03:03;101548.09;;;2.89;90.94
46464;BME280;32161;48.148;-1.554;2022-12-07T11:05:42;101552.28;;;2.92;91.33
46464;BME280;32161;48.148;-1.554;2022-12-07T11:08:39;101550.28;;;2.94;91.29
46464;BME280;32161;48.148;-1.554;2022-12-07T11:11:16;101544.19;;;2.84;91.45
46464;BME280;32161;48.148;-1.554;2022-12-07T11:13:52;101546.09;;;3.00;91.32
46464;BME280;32161;48.148;-1.554;2022-12-07T11:16:47;101536.53;;;2.97;90.67
46464;BME280;32161;48.148;-1.554;2022-12-07T11:19:39;101539.84;;;2.91;90.68
46464;BME280;32161;48.148;-1.554;2022-12-07T11:22:24;101538.66;;;2.85;91.66
46464;BME280;32161;48.148;-1.554;2022-12-07T11:25:00;101538.50;;;2.87;91.68
46464;BME280;32161;48.148;-1.554;2022-12-07T11:27:36;101540.56;;;2.93;93.25
46464;BME280;32161;48.148;-1.554;2022-12-07T11:30:17;101535.06;;;3.11;92.92
46464;BME280;32161;48.148;-1.554;2022-12-07T11:33:09;101528.22;;;3.16;93.32
46464;BME280;32161;48.148;-1.554;2022-12-07T11:35:59;101523.88;;;3.24;92.79
46464;BME280;32161;48.148;-1.554;2022-12-07T11:38:41;101515.97;;;3.22;92.73
46464;BME280;32161;48.148;-1.554;2022-12-07T11:41:10;101527.09;;;3.27;92.30
46464;BME280;32161;48.148;-1.554;2022-12-07T11:43:58;101518.34;;;3.33;92.42
46464;BME280;32161;48.148;-1.554;2022-12-07T11:46:43;101515.00;;;3.31;93.05
46464;BME280;32161;48.148;-1.554;2022-12-07T11:49:19;101514.34;;;3.37;92.52
46464;BME280;32161;48.148;-1.554;2022-12-07T11:51:53;101511.81;;;3.36;93.54
46464;BME280;32161;48.148;-1.554;2022-12-07T11:54:30;101515.88;;;3.40;93.38
46464;BME280;32161;48.148;-1.554;2022-12-07T11:57:07;101504.47;;;3.46;93.85
46464;BME280;32161;48.148;-1.554;2022-12-07T11:59:42;101501.28;;;3.51;93.13
46464;BME280;32161;48.148;-1.554;2022-12-07T12:02:15;101498.91;;;3.48;94.29
46464;BME280;32161;48.148;-1.554;2022-12-07T12:04:52;101491.19;;;3.53;94.04
46464;BME280;32161;48.148;-1.554;2022-12-07T12:07:24;101482.97;;;3.54;93.48
46464;BME280;32161;48.148;-1.554;2022-12-07T12:09:59;101478.25;;;3.64;93.23
46464;BME280;32161;48.148;-1.554;2022-12-07T12:12:57;101477.28;;;3.65;93.02
46464;BME280;32161;48.148;-1.554;2022-12-07T12:15:45;101477.25;;;3.49;92.24
46464;BME280;32161;48.148;-1.554;2022-12-07T12:18:59;101479.78;;;3.59;92.43
46464;BME280;32161;48.148;-1.554;2022-12-07T12:21:32;101473.91;;;3.72;93.24
46464;BME280;32161;48.148;-1.554;2022-12-07T12:24:02;101467.34;;;3.74;93.40
46464;BME280;32161;48.148;-1.554;2022-12-07T12:26:36;101474.59;;;3.82;93.90
46464;BME280;32161;48.148;-1.554;2022-12-07T12:29:15;101467.53;;;3.89;93.51
46464;BME280;32161;48.148;-1.554;2022-12-07T12:32:05;101466.50;;;3.98;92.66
46464;BME280;32161;48.148;-1.554;2022-12-07T12:34:40;101459.63;;;4.04;91.91
46464;BME280;32161;48.148;-1.554;2022-12-07T12:37:45;101456.44;;;4.00;92.05
46464;BME280;32161;48.148;-1.554;2022-12-07T12:40:51;101456.94;;;4.04;91.61
46464;BME280;32161;48.148;-1.554;2022-12-07T12:43:52;101451.69;;;4.02;91.37
46464;BME280;32161;48.148;-1.554;2022-12-07T12:46:58;101447.34;;;4.01;92.11
46464;BME280;32161;48.148;-1.554;2022-12-07T12:49:35;101445.47;;;4.10;91.93
46464;BME280;32161;48.148;-1.554;2022-12-07T12:53:01;101443.31;;;4.05;91.78
46464;BME280;32161;48.148;-1.554;2022-12-07T12:59:24;101430.34;;;4.17;92.51
46464;BME280;32161;48.148;-1.554;2022-12-07T13:02:06;101423.06;;;4.26;92.95
46464;BME280;32161;48.148;-1.554;2022-12-07T13:04:59;101420.34;;;4.34;93.19
46464;BME280;32161;48.148;-1.554;2022-12-07T13:08:05;101415.16;;;4.32;92.12
46464;BME280;32161;48.148;-1.554;2022-12-07T13:10:44;101403.72;;;4.38;91.92
46464;BME280;32161;48.148;-1.554;2022-12-07T13:13:35;101409.41;;;4.44;91.96
46464;BME280;32161;48.148;-1.554;2022-12-07T13:16:49;101409.38;;;4.52;91.83
46464;BME280;32161;48.148;-1.554;2022-12-07T13:19:56;101397.44;;;4.54;92.28
46464;BME280;32161;48.148;-1.554;2022-12-07T13:22:51;101405.84;;;4.51;92.46
46464;BME280;32161;48.148;-1.554;2022-12-07T13:25:45;101391.38;;;4.52;91.60
46464;BME280;32161;48.148;-1.554;2022-12-07T13:28:17;101394.72;;;4.54;91.84
46464;BME280;32161;48.148;-1.554;2022-12-07T13:31:03;101389.66;;;4.59;91.40
46464;BME280;32161;48.148;-1.554;2022-12-07T13:33:35;101386.28;;;4.65;91.42
46464;BME280;32161;48.148;-1.554;2022-12-07T13:36:03;101389.25;;;4.71;91.57
46464;BME280;32161;48.148;-1.554;2022-12-07T13:38:33;101372.53;;;4.83;90.60
46464;BME280;32161;48.148;-1.554;2022-12-07T13:41:10;101371.03;;;4.81;89.49
46464;BME280;32161;48.148;-1.554;2022-12-07T13:43:52;101371.06;;;4.73;90.96
46464;BME280;32161;48.148;-1.554;2022-12-07T13:46:29;101366.69;;;4.72;91.05
46464;BME280;32161;48.148;-1.554;2022-12-07T13:49:00;101362.97;;;4.73;91.61